createdAt,value
2018-03-14T00:00:21.184Z,4.7
2018-03-14T00:01:23.616Z,4.7
2018-03-14T00:02:26.331Z,4.9
2018-03-14T00:03:28.777Z,4.8
2018-03-14T00:04:31.204Z,4.8
2018-03-14T00:05:33.626Z,4.8
2018-03-14T00:06:36.068Z,4.8
2018-03-14T00:07:38.501Z,4.7
2018-03-14T00:08:40.918Z,4.7
2018-03-14T00:09:43.659Z,4.7
2018-03-14T00:10:46.076Z,4.7
2018-03-14T00:11:48.852Z,4.8
2018-03-14T00:12:51.282Z,4.8
2018-03-14T00:13:53.709Z,4.8
2018-03-14T00:14:56.434Z,4.8
2018-03-14T00:15:58.863Z,4.8
2018-03-14T00:17:01.597Z,4.7
2018-03-14T00:18:04.038Z,4.7
2018-03-14T00:19:06.452Z,4.7
2018-03-14T00:20:08.888Z,4.7
2018-03-14T00:21:11.419Z,4.7
2018-03-14T00:22:13.754Z,4.7
2018-03-14T00:23:16.185Z,4.7
2018-03-14T00:24:19.225Z,4.7
2018-03-14T00:25:21.665Z,4.7
2018-03-14T00:26:24.088Z,4.8
2018-03-14T00:27:26.513Z,4.7
2018-03-14T00:28:29.245Z,4.7
2018-03-14T00:29:31.667Z,4.7
2018-03-14T00:30:34.090Z,4.7
2018-03-14T00:31:36.845Z,4.8
2018-03-14T00:32:39.269Z,4.7
2018-03-14T00:33:41.700Z,4.7
2018-03-14T00:34:44.134Z,4.7
2018-03-14T00:35:46.572Z,4.7
2018-03-14T00:36:48.992Z,4.7
2018-03-14T00:37:51.729Z,4.7
2018-03-14T00:38:54.478Z,4.7
2018-03-14T00:39:56.904Z,4.7
2018-03-14T00:40:59.639Z,4.7
2018-03-14T00:42:02.360Z,4.8
2018-03-14T00:43:04.788Z,4.8
2018-03-14T00:44:07.218Z,4.7
2018-03-14T00:45:09.962Z,4.7
2018-03-14T00:46:12.701Z,4.7
2018-03-14T00:47:15.134Z,4.7
2018-03-14T00:48:17.560Z,4.8
2018-03-14T00:49:19.997Z,4.7
2018-03-14T00:50:22.729Z,4.7
2018-03-14T00:51:25.149Z,4.7
2018-03-14T00:52:27.575Z,4.7
2018-03-14T00:53:30.015Z,4.7
2018-03-14T00:54:32.441Z,4.8
2018-03-14T00:55:34.860Z,4.7
2018-03-14T00:56:37.297Z,4.8
2018-03-14T00:57:39.718Z,4.7
2018-03-14T00:58:42.467Z,4.7
2018-03-14T00:59:44.898Z,4.7
2018-03-14T01:00:47.648Z,4.7
2018-03-14T01:01:50.081Z,4.7
2018-03-14T01:02:52.515Z,4.8
2018-03-14T01:03:54.936Z,4.8
2018-03-14T01:04:57.664Z,4.8
2018-03-14T01:06:00.091Z,4.8
2018-03-14T01:07:02.805Z,4.7
2018-03-14T01:08:05.240Z,4.7
2018-03-14T01:09:08.821Z,4.7
2018-03-14T01:10:11.247Z,4.7
2018-03-14T01:11:13.992Z,4.8
2018-03-14T01:12:16.411Z,4.7
2018-03-14T01:13:18.838Z,4.7
2018-03-14T01:14:21.269Z,4.7
2018-03-14T01:15:23.693Z,4.7
2018-03-14T01:16:26.127Z,4.8
2018-03-14T01:17:28.562Z,4.8
2018-03-14T01:18:31.312Z,4.9
2018-03-14T01:19:33.744Z,4.7
2018-03-14T01:20:36.580Z,4.7
2018-03-14T01:21:39.013Z,4.8
2018-03-14T01:22:41.749Z,4.7
2018-03-14T01:23:44.174Z,4.7
2018-03-14T01:24:46.602Z,4.7
2018-03-14T01:25:49.045Z,4.7
2018-03-14T01:26:51.470Z,4.8
2018-03-14T01:27:53.894Z,4.8
2018-03-14T01:28:56.326Z,4.8
2018-03-14T01:29:58.741Z,4.8
2018-03-14T01:31:01.169Z,4.7
2018-03-14T01:32:03.921Z,4.7
2018-03-14T01:33:06.348Z,4.7
2018-03-14T01:34:08.773Z,4.7
2018-03-14T01:35:11.208Z,4.8
2018-03-14T01:36:13.631Z,4.8
2018-03-14T01:37:16.362Z,4.8
2018-03-14T01:38:18.789Z,4.7
2018-03-14T01:39:21.863Z,4.8
2018-03-14T01:40:24.302Z,4.8
2018-03-14T01:41:27.020Z,4.8
2018-03-14T01:42:30.187Z,4.7
2018-03-14T01:43:32.622Z,4.8
2018-03-14T01:44:35.045Z,4.7
2018-03-14T01:45:37.477Z,4.7
2018-03-14T01:46:39.905Z,4.7
2018-03-14T01:47:42.648Z,4.7
2018-03-14T01:48:45.086Z,4.8
2018-03-14T01:49:47.841Z,4.7
2018-03-14T01:50:50.592Z,4.8
2018-03-14T01:51:53.025Z,4.8
2018-03-14T01:52:55.456Z,4.8
2018-03-14T01:53:57.880Z,4.8
2018-03-14T01:55:00.315Z,4.8
2018-03-14T01:56:03.042Z,4.8
2018-03-14T01:57:05.470Z,4.7
2018-03-14T01:58:08.517Z,4.7
2018-03-14T01:59:11.234Z,4.7
2018-03-14T02:00:13.667Z,4.7
2018-03-14T02:01:16.092Z,4.7
2018-03-14T02:02:18.517Z,4.8
2018-03-14T02:03:20.945Z,4.8
2018-03-14T02:04:23.372Z,4.8
2018-03-14T02:05:25.813Z,4.9
2018-03-14T02:06:28.231Z,4.8
2018-03-14T02:07:30.659Z,4.7
2018-03-14T02:08:33.075Z,4.7
2018-03-14T02:09:35.512Z,4.7
2018-03-14T02:10:37.934Z,4.8
2018-03-14T02:11:40.720Z,4.8
2018-03-14T02:12:43.458Z,4.9
2018-03-14T02:13:46.178Z,4.8
2018-03-14T02:14:49.260Z,4.7
2018-03-14T02:15:51.683Z,4.8
2018-03-14T02:16:54.117Z,4.7
2018-03-14T02:17:56.546Z,4.7
2018-03-14T02:18:58.983Z,4.9
2018-03-14T02:20:01.412Z,4.7
2018-03-14T02:21:03.846Z,4.8
2018-03-14T02:22:06.262Z,4.8
2018-03-14T02:23:09.041Z,4.8
2018-03-14T02:24:11.732Z,4.8
2018-03-14T02:25:14.158Z,4.9
2018-03-14T02:26:16.580Z,4.7
2018-03-14T02:27:19.014Z,4.8
2018-03-14T02:28:21.444Z,4.7
2018-03-14T02:29:25.103Z,4.7
2018-03-14T02:30:27.544Z,4.8
2018-03-14T02:31:30.259Z,4.8
2018-03-14T02:32:32.692Z,4.7
2018-03-14T02:33:35.115Z,4.7
2018-03-14T02:34:38.747Z,4.7
2018-03-14T02:35:41.161Z,4.8
2018-03-14T02:36:43.596Z,4.7
2018-03-14T02:37:46.006Z,4.7
2018-03-14T02:38:48.446Z,4.8
2018-03-14T02:39:50.870Z,4.8
2018-03-14T02:40:53.283Z,4.8
2018-03-14T02:41:55.719Z,4.8
2018-03-14T02:42:58.142Z,4.7
2018-03-14T02:44:00.575Z,4.7
2018-03-14T02:45:03.578Z,4.7
2018-03-14T02:46:05.999Z,4.9
2018-03-14T02:47:08.431Z,4.8
2018-03-14T02:48:10.866Z,4.8
2018-03-14T02:49:13.287Z,4.8
2018-03-14T02:50:15.712Z,4.8
2018-03-14T02:51:18.145Z,4.7
2018-03-14T02:52:20.573Z,4.7
2018-03-14T02:53:22.992Z,4.7
2018-03-14T02:54:25.437Z,4.8
2018-03-14T02:55:27.848Z,4.7
2018-03-14T02:56:30.273Z,4.8
2018-03-14T02:57:32.700Z,4.8
2018-03-14T02:58:35.131Z,4.9
2018-03-14T02:59:37.558Z,4.7
2018-03-14T03:00:40.282Z,4.8
2018-03-14T03:01:42.709Z,4.8
2018-03-14T03:02:45.122Z,4.8
2018-03-14T03:03:47.559Z,4.7
2018-03-14T03:04:49.996Z,4.8
2018-03-14T03:05:52.707Z,4.8
2018-03-14T03:06:55.139Z,4.9
2018-03-14T03:07:57.569Z,4.7
2018-03-14T03:08:59.989Z,4.8
2018-03-14T03:10:02.420Z,4.8
2018-03-14T03:11:04.848Z,4.8
2018-03-14T03:12:07.264Z,4.8
2018-03-14T03:13:10.004Z,4.7
2018-03-14T03:14:12.430Z,4.8
2018-03-14T03:15:14.864Z,4.9
2018-03-14T03:16:17.298Z,4.8
2018-03-14T03:17:19.722Z,4.8
2018-03-14T03:18:22.445Z,4.8
2018-03-14T03:19:24.875Z,4.7
2018-03-14T03:20:27.302Z,4.8
2018-03-14T03:21:29.731Z,4.8
2018-03-14T03:22:32.166Z,4.8
2018-03-14T03:23:34.589Z,5.1
2018-03-14T03:24:37.018Z,4.8
2018-03-14T03:25:39.455Z,4.8
2018-03-14T03:26:41.876Z,5
2018-03-14T03:27:44.307Z,4.8
2018-03-14T03:28:46.745Z,4.8
2018-03-14T03:29:49.448Z,4.8
2018-03-14T03:30:51.883Z,4.9
2018-03-14T03:31:54.304Z,4.9
2018-03-14T03:32:57.016Z,4.8
2018-03-14T03:33:59.453Z,4.9
2018-03-14T03:35:01.877Z,4.8
2018-03-14T03:36:04.295Z,4.8
2018-03-14T03:37:07.023Z,4.8
2018-03-14T03:38:09.449Z,4.7
2018-03-14T03:39:11.880Z,4.8
2018-03-14T03:40:14.312Z,4.8
2018-03-14T03:41:16.737Z,4.9
2018-03-14T03:42:19.173Z,4.9
2018-03-14T03:43:21.597Z,4.8
2018-03-14T03:44:24.020Z,4.8
2018-03-14T03:45:26.457Z,4.8
2018-03-14T03:46:28.877Z,4.8
2018-03-14T03:47:31.303Z,4.8
2018-03-14T03:48:33.725Z,4.9
2018-03-14T03:49:36.149Z,4.8
2018-03-14T03:50:38.584Z,4.8
2018-03-14T03:51:41.006Z,4.8
2018-03-14T03:52:43.442Z,4.7
2018-03-14T03:53:46.159Z,4.8
2018-03-14T03:54:48.577Z,4.8
2018-03-14T03:55:51.009Z,4.8
2018-03-14T03:56:53.429Z,4.9
2018-03-14T03:57:55.855Z,4.9
2018-03-14T03:58:58.574Z,4.8
2018-03-14T04:00:01.300Z,4.7
2018-03-14T04:01:03.999Z,4.9
2018-03-14T04:02:06.434Z,4.8
2018-03-14T04:03:08.861Z,4.8
2018-03-14T04:04:11.284Z,4.8
2018-03-14T04:05:13.717Z,4.7
2018-03-14T04:06:16.140Z,4.8
2018-03-14T04:07:18.575Z,4.8
2018-03-14T04:08:21.335Z,4.8
2018-03-14T04:09:23.718Z,4.9
2018-03-14T04:10:26.458Z,4.8
2018-03-14T04:11:29.185Z,4.9
2018-03-14T04:12:31.608Z,4.7
2018-03-14T04:13:34.033Z,5
2018-03-14T04:14:36.464Z,4.7
2018-03-14T04:15:38.880Z,4.8
2018-03-14T04:16:41.305Z,4.7
2018-03-14T04:17:43.724Z,4.8
2018-03-14T04:18:46.144Z,4.8
2018-03-14T04:19:48.576Z,4.8
2018-03-14T04:20:51.013Z,4.8
2018-03-14T04:21:53.437Z,4.7
2018-03-14T04:22:55.858Z,4.8
2018-03-14T04:23:58.288Z,4.8
2018-03-14T04:25:00.718Z,4.9
2018-03-14T04:26:03.429Z,4.8
2018-03-14T04:27:06.144Z,4.8
2018-03-14T04:28:08.577Z,4.9
2018-03-14T04:29:11.290Z,4.8
2018-03-14T04:30:13.721Z,4.8
2018-03-14T04:31:16.452Z,4.8
2018-03-14T04:32:18.884Z,4.7
2018-03-14T04:33:21.605Z,4.8
2018-03-14T04:34:24.034Z,4.8
2018-03-14T04:35:26.461Z,4.8
2018-03-14T04:36:29.185Z,4.7
2018-03-14T04:37:31.597Z,4.8
2018-03-14T04:38:34.031Z,4.8
2018-03-14T04:39:36.467Z,4.8
2018-03-14T04:40:38.886Z,4.8
2018-03-14T04:41:41.314Z,4.8
2018-03-14T04:42:43.737Z,4.8
2018-03-14T04:43:46.153Z,4.7
2018-03-14T04:44:48.903Z,4.7
2018-03-14T04:45:51.322Z,4.8
2018-03-14T04:46:53.747Z,4.9
2018-03-14T04:47:56.171Z,4.8
2018-03-14T04:48:58.606Z,4.9
2018-03-14T04:50:01.036Z,4.7
2018-03-14T04:51:03.750Z,4.8
2018-03-14T04:52:06.194Z,4.8
2018-03-14T04:53:08.614Z,4.9
2018-03-14T04:54:11.042Z,4.8
2018-03-14T04:55:13.467Z,4.9
2018-03-14T04:56:15.894Z,4.8
2018-03-14T04:57:18.319Z,4.7
2018-03-14T04:58:21.036Z,4.9
2018-03-14T04:59:23.464Z,4.8
2018-03-14T05:00:25.897Z,4.7
2018-03-14T05:01:28.331Z,4.7
2018-03-14T05:02:31.053Z,4.7
2018-03-14T05:03:33.760Z,4.8
2018-03-14T05:04:36.476Z,4.8
2018-03-14T05:05:38.904Z,4.9
2018-03-14T05:06:41.334Z,4.8
2018-03-14T05:07:43.773Z,4.8
2018-03-14T05:08:46.481Z,4.8
2018-03-14T05:09:48.904Z,4.9
2018-03-14T05:10:51.337Z,4.9
2018-03-14T05:11:53.766Z,4.8
2018-03-14T05:12:56.344Z,4.7
2018-03-14T05:13:59.086Z,4.8
2018-03-14T05:15:01.509Z,4.8
2018-03-14T05:16:03.943Z,4.8
2018-03-14T05:17:06.371Z,4.9
2018-03-14T05:18:09.078Z,4.8
2018-03-14T05:19:11.558Z,5
2018-03-14T05:20:14.209Z,4.9
2018-03-14T05:21:16.637Z,4.7
2018-03-14T05:22:19.066Z,4.7
2018-03-14T05:23:21.491Z,4.9
2018-03-14T05:24:23.926Z,4.8
2018-03-14T05:25:26.351Z,4.8
2018-03-14T05:26:28.795Z,4.8
2018-03-14T05:27:31.512Z,4.9
2018-03-14T05:28:34.239Z,4.8
2018-03-14T05:29:36.679Z,4.8
2018-03-14T05:30:39.393Z,4.9
2018-03-14T05:31:41.815Z,4.8
2018-03-14T05:32:44.578Z,4.8
2018-03-14T05:33:47.243Z,4.7
2018-03-14T05:34:49.966Z,4.8
2018-03-14T05:35:52.398Z,4.8
2018-03-14T05:36:54.821Z,4.8
2018-03-14T05:37:57.245Z,4.9
2018-03-14T05:38:59.679Z,4.8
2018-03-14T05:40:02.098Z,4.8
2018-03-14T05:41:04.527Z,4.8
2018-03-14T05:42:06.956Z,4.7
2018-03-14T05:43:09.387Z,4.8
2018-03-14T05:44:11.814Z,4.7
2018-03-14T05:45:14.247Z,4.9
2018-03-14T05:46:16.671Z,4.8
2018-03-14T05:47:19.103Z,4.8
2018-03-14T05:48:21.532Z,4.8
2018-03-14T05:49:23.955Z,4.9
2018-03-14T05:50:26.373Z,4.8
2018-03-14T05:51:28.818Z,4.8
2018-03-14T05:52:31.244Z,4.8
2018-03-14T05:53:33.666Z,4.8
2018-03-14T05:54:36.101Z,4.7
2018-03-14T05:55:38.817Z,4.9
2018-03-14T05:56:41.245Z,4.8
2018-03-14T05:57:43.680Z,4.8
2018-03-14T05:58:46.098Z,4.9
2018-03-14T05:59:48.520Z,4.8
2018-03-14T06:00:50.958Z,4.8
2018-03-14T06:01:53.382Z,4.9
2018-03-14T06:02:55.800Z,4.8
2018-03-14T06:03:58.237Z,4.8
2018-03-14T06:05:00.662Z,4.9
2018-03-14T06:06:03.096Z,4.8
2018-03-14T06:07:05.516Z,4.8
2018-03-14T06:08:07.940Z,4.8
2018-03-14T06:09:10.365Z,4.8
2018-03-14T06:10:13.370Z,4.8
2018-03-14T06:11:15.795Z,4.7
2018-03-14T06:12:18.226Z,4.8
2018-03-14T06:13:20.640Z,4.8
2018-03-14T06:14:23.075Z,4.9
2018-03-14T06:15:25.512Z,4.7
2018-03-14T06:16:27.942Z,4.7
2018-03-14T06:17:30.365Z,4.8
2018-03-14T06:18:32.790Z,4.8
2018-03-14T06:19:35.528Z,4.7
2018-03-14T06:20:38.249Z,4.9
2018-03-14T06:21:40.687Z,4.8
2018-03-14T06:22:43.113Z,4.8
2018-03-14T06:23:45.554Z,4.7
2018-03-14T06:24:48.251Z,4.8
2018-03-14T06:25:50.682Z,4.8
2018-03-14T06:26:53.116Z,4.7
2018-03-14T06:27:55.545Z,4.8
2018-03-14T06:28:57.962Z,4.8
2018-03-14T06:30:00.393Z,4.9
2018-03-14T06:31:02.806Z,4.8
2018-03-14T06:32:05.244Z,4.9
2018-03-14T06:33:07.687Z,4.7
2018-03-14T06:34:10.391Z,4.7
2018-03-14T06:35:12.820Z,4.8
2018-03-14T06:36:15.242Z,4.7
2018-03-14T06:37:17.676Z,4.7
2018-03-14T06:38:20.104Z,4.8
2018-03-14T06:39:22.528Z,4.8
2018-03-14T06:40:25.244Z,4.8
2018-03-14T06:41:27.677Z,4.9
2018-03-14T06:42:30.121Z,4.7
2018-03-14T06:43:32.539Z,4.7
2018-03-14T06:44:34.969Z,4.8
2018-03-14T06:45:37.664Z,4.7
2018-03-14T06:46:40.105Z,4.8
2018-03-14T06:47:42.527Z,4.8
2018-03-14T06:48:44.946Z,4.8
2018-03-14T06:49:47.382Z,4.8
2018-03-14T06:50:49.809Z,4.8
2018-03-14T06:51:52.243Z,4.7
2018-03-14T06:52:54.673Z,4.8
2018-03-14T06:53:57.098Z,4.8
2018-03-14T06:54:59.534Z,4.7
2018-03-14T06:56:01.956Z,4.9
2018-03-14T06:57:04.384Z,4.8
2018-03-14T06:58:07.097Z,4.7
2018-03-14T06:59:09.519Z,4.8
2018-03-14T07:00:11.951Z,4.8
2018-03-14T07:01:14.381Z,4.7
2018-03-14T07:02:16.813Z,4.7
2018-03-14T07:03:19.521Z,4.8
2018-03-14T07:04:21.950Z,4.9
2018-03-14T07:05:24.379Z,4.8
2018-03-14T07:06:26.815Z,4.9
2018-03-14T07:07:29.233Z,4.8
2018-03-14T07:08:31.953Z,4.8
2018-03-14T07:09:34.383Z,4.8
2018-03-14T07:10:36.833Z,4.7
2018-03-14T07:11:39.276Z,4.8
2018-03-14T07:12:41.701Z,4.8
2018-03-14T07:13:44.123Z,4.8
2018-03-14T07:14:46.846Z,4.7
2018-03-14T07:15:49.268Z,4.8
2018-03-14T07:16:51.700Z,4.8
2018-03-14T07:17:54.129Z,4.8
2018-03-14T07:18:56.558Z,4.8
2018-03-14T07:19:59.277Z,4.7
2018-03-14T07:21:01.706Z,4.8
2018-03-14T07:22:04.130Z,4.9
2018-03-14T07:23:06.559Z,4.8
2018-03-14T07:24:09.289Z,4.8
2018-03-14T07:25:11.711Z,4.8
2018-03-14T07:26:14.130Z,4.8
2018-03-14T07:27:16.567Z,4.8
2018-03-14T07:28:18.992Z,4.7
2018-03-14T07:29:21.426Z,4.7
2018-03-14T07:30:23.852Z,4.8
2018-03-14T07:31:26.558Z,4.7
2018-03-14T07:32:28.987Z,4.8
2018-03-14T07:33:31.425Z,4.8
2018-03-14T07:34:33.855Z,4.9
2018-03-14T07:35:36.598Z,4.8
2018-03-14T07:36:39.016Z,4.7
2018-03-14T07:37:41.454Z,4.8
2018-03-14T07:38:43.882Z,4.7
2018-03-14T07:39:46.595Z,4.7
2018-03-14T07:40:49.019Z,4.8
2018-03-14T07:41:51.444Z,4.9
2018-03-14T07:42:53.865Z,4.8
2018-03-14T07:43:56.303Z,4.8
2018-03-14T07:44:58.722Z,4.8
2018-03-14T07:46:01.159Z,4.8
2018-03-14T07:47:03.611Z,4.8
2018-03-14T07:48:06.047Z,4.8
2018-03-14T07:49:08.764Z,4.9
2018-03-14T07:50:11.192Z,4.8
2018-03-14T07:51:13.910Z,4.8
2018-03-14T07:52:16.331Z,4.8
2018-03-14T07:53:18.762Z,4.8
2018-03-14T07:54:21.188Z,4.7
2018-03-14T07:55:23.619Z,4.7
2018-03-14T07:56:26.046Z,4.7
2018-03-14T07:57:28.494Z,4.7
2018-03-14T07:58:30.919Z,4.9
2018-03-14T07:59:33.364Z,4.9
2018-03-14T08:00:35.784Z,4.9
2018-03-14T08:01:38.220Z,4.8
2018-03-14T08:02:40.645Z,5
2018-03-14T08:03:43.080Z,4.7
2018-03-14T08:04:45.783Z,4.7
2018-03-14T08:05:48.250Z,4.8
2018-03-14T08:06:50.638Z,4.8
2018-03-14T08:07:53.361Z,4.8
2018-03-14T08:08:55.788Z,4.8
2018-03-14T08:09:58.226Z,4.8
2018-03-14T08:11:00.635Z,4.8
2018-03-14T08:12:03.127Z,4.8
2018-03-14T08:13:05.547Z,4.8
2018-03-14T08:14:08.265Z,4.7
2018-03-14T08:15:10.695Z,4.8
2018-03-14T08:16:13.124Z,4.7
2018-03-14T08:17:15.548Z,4.8
2018-03-14T08:18:17.983Z,4.8
2018-03-14T08:19:20.407Z,4.8
2018-03-14T08:20:22.832Z,4.7
2018-03-14T08:21:25.303Z,4.7
2018-03-14T08:22:27.689Z,4.7
2018-03-14T08:23:30.437Z,4.7
2018-03-14T08:24:32.865Z,4.7
2018-03-14T08:25:35.303Z,4.8
2018-03-14T08:26:37.730Z,4.8
2018-03-14T08:27:40.452Z,4.8
2018-03-14T08:28:43.192Z,4.8
2018-03-14T08:29:45.616Z,4.7
2018-03-14T08:30:48.032Z,4.7
2018-03-14T08:31:50.472Z,4.7
2018-03-14T08:32:53.188Z,4.7
2018-03-14T08:33:55.662Z,4.8
2018-03-14T08:34:58.343Z,4.8
2018-03-14T08:36:00.755Z,4.8
2018-03-14T08:37:03.192Z,4.9
2018-03-14T08:38:05.627Z,4.8
2018-03-14T08:39:08.048Z,4.9
2018-03-14T08:40:10.772Z,4.7
2018-03-14T08:41:13.199Z,4.8
2018-03-14T08:42:15.626Z,4.7
2018-03-14T08:43:18.380Z,4.8
2018-03-14T08:44:20.811Z,4.8
2018-03-14T08:45:23.232Z,4.8
2018-03-14T08:46:25.960Z,4.8
2018-03-14T08:47:28.392Z,4.8
2018-03-14T08:48:30.818Z,4.9
2018-03-14T08:49:33.243Z,4.9
2018-03-14T08:50:35.675Z,4.8
2018-03-14T08:51:38.102Z,4.8
2018-03-14T08:52:40.529Z,4.7
2018-03-14T08:53:42.962Z,4.8
2018-03-14T08:54:45.395Z,4.9
2018-03-14T08:55:47.845Z,4.8
2018-03-14T08:56:50.252Z,4.7
2018-03-14T08:57:52.680Z,4.8
2018-03-14T08:58:55.095Z,4.8
2018-03-14T08:59:57.523Z,4.7
2018-03-14T09:00:59.960Z,4.9
2018-03-14T09:02:02.389Z,4.8
2018-03-14T09:03:04.836Z,4.8
2018-03-14T09:04:07.261Z,4.8
2018-03-14T09:05:09.691Z,4.9
2018-03-14T09:06:12.687Z,4.8
2018-03-14T09:07:15.118Z,4.8
2018-03-14T09:08:17.537Z,4.8
2018-03-14T09:09:20.272Z,4.8
2018-03-14T09:10:22.977Z,4.8
2018-03-14T09:11:25.691Z,4.9
2018-03-14T09:12:28.122Z,4.9
2018-03-14T09:13:30.547Z,4.8
2018-03-14T09:14:32.980Z,4.8
2018-03-14T09:15:35.703Z,4.9
2018-03-14T09:16:38.125Z,4.8
2018-03-14T09:17:40.563Z,4.8
2018-03-14T09:18:42.984Z,4.8
2018-03-14T09:19:45.421Z,4.8
2018-03-14T09:20:48.163Z,4.9
2018-03-14T09:21:50.600Z,4.9
2018-03-14T09:22:53.037Z,4.9
2018-03-14T09:23:55.473Z,4.9
2018-03-14T09:24:57.895Z,4.9
2018-03-14T09:26:00.330Z,4.9
2018-03-14T09:27:02.754Z,4.8
2018-03-14T09:28:05.179Z,4.9
2018-03-14T09:29:07.603Z,4.9
2018-03-14T09:30:10.039Z,4.8
2018-03-14T09:31:12.758Z,4.9
2018-03-14T09:32:15.191Z,4.9
2018-03-14T09:33:17.636Z,4.9
2018-03-14T09:34:20.045Z,4.8
2018-03-14T09:35:23.060Z,4.8
2018-03-14T09:36:25.488Z,4.8
2018-03-14T09:37:27.926Z,4.8
2018-03-14T09:38:30.364Z,4.9
2018-03-14T09:39:33.109Z,5.1
2018-03-14T09:40:35.533Z,4.9
2018-03-14T09:41:37.971Z,4.9
2018-03-14T09:42:40.402Z,4.9
2018-03-14T09:43:42.830Z,4.8
2018-03-14T09:44:45.266Z,4.8
2018-03-14T09:45:47.988Z,5
2018-03-14T09:46:50.419Z,4.9
2018-03-14T09:47:52.842Z,4.9
2018-03-14T09:48:55.278Z,4.9
2018-03-14T09:49:57.700Z,4.8
2018-03-14T09:51:00.143Z,4.8
2018-03-14T09:52:02.579Z,4.9
2018-03-14T09:53:05.005Z,4.9
2018-03-14T09:54:07.771Z,4.9
2018-03-14T09:55:10.187Z,4.9
2018-03-14T09:56:12.612Z,4.9
2018-03-14T09:57:15.344Z,4.9
2018-03-14T09:58:17.779Z,4.9
2018-03-14T09:59:20.202Z,4.8
2018-03-14T10:00:22.644Z,4.8
2018-03-14T10:01:25.368Z,4.8
2018-03-14T10:02:27.792Z,5
2018-03-14T10:03:30.230Z,4.8
2018-03-14T10:04:32.971Z,4.9
2018-03-14T10:05:35.405Z,5
2018-03-14T10:06:37.844Z,4.9
2018-03-14T10:07:40.860Z,4.9
2018-03-14T10:08:43.293Z,4.9
2018-03-14T10:09:45.724Z,4.9
2018-03-14T10:10:48.430Z,4.9
2018-03-14T10:11:50.869Z,4.9
2018-03-14T10:12:53.296Z,4.9
2018-03-14T10:13:56.022Z,5
2018-03-14T10:14:58.449Z,4.9
2018-03-14T10:16:00.886Z,4.9
2018-03-14T10:17:03.331Z,5
2018-03-14T10:18:06.350Z,5
2018-03-14T10:19:08.891Z,5.1
2018-03-14T10:20:11.215Z,5
2018-03-14T10:21:13.936Z,5
2018-03-14T10:22:16.364Z,4.9
2018-03-14T10:23:19.104Z,5.1
2018-03-14T10:24:21.816Z,5
2018-03-14T10:25:24.309Z,5.2
2018-03-14T10:26:26.998Z,5.1
2018-03-14T10:27:29.433Z,5.1
2018-03-14T10:28:31.864Z,5.1
2018-03-14T10:29:34.313Z,5.1
2018-03-14T10:30:36.737Z,5.1
2018-03-14T10:31:39.468Z,5.2
2018-03-14T10:32:41.913Z,5.2
2018-03-14T10:33:44.355Z,5.2
2018-03-14T10:34:46.792Z,5.2
2018-03-14T10:35:49.225Z,5.2
2018-03-14T10:36:51.658Z,5.2
2018-03-14T10:37:54.092Z,5.2
2018-03-14T10:38:56.823Z,5.2
2018-03-14T10:39:59.551Z,5.2
2018-03-14T10:41:01.994Z,5.4
2018-03-14T10:42:04.741Z,5.4
2018-03-14T10:43:07.469Z,5.3
2018-03-14T10:44:09.925Z,5.4
2018-03-14T10:45:12.363Z,5.3
2018-03-14T10:46:14.804Z,5.3
2018-03-14T10:47:17.249Z,5.3
2018-03-14T10:48:19.988Z,5.4
2018-03-14T10:49:22.419Z,5.3
2018-03-14T10:50:24.855Z,5.3
2018-03-14T10:51:27.295Z,5.4
2018-03-14T10:52:30.020Z,5.3
2018-03-14T10:53:32.757Z,5.3
2018-03-14T10:54:35.196Z,5.3
2018-03-14T10:55:37.640Z,5.3
2018-03-14T10:56:40.364Z,5.3
2018-03-14T10:57:42.812Z,5.3
2018-03-14T10:58:45.238Z,5.3
2018-03-14T10:59:47.688Z,5.2
2018-03-14T11:00:50.412Z,5.2
2018-03-14T11:01:53.145Z,5.2
2018-03-14T11:02:56.174Z,5.2
2018-03-14T11:03:58.604Z,5.2
2018-03-14T11:05:01.042Z,5.2
2018-03-14T11:06:03.494Z,5.3
2018-03-14T11:07:06.200Z,5.3
2018-03-14T11:08:08.628Z,5.3
2018-03-14T11:09:11.079Z,5.2
2018-03-14T11:10:13.520Z,5.1
2018-03-14T11:11:16.241Z,5.2
2018-03-14T11:12:18.686Z,5.2
2018-03-14T11:13:21.123Z,5.1
2018-03-14T11:14:23.558Z,5.2
2018-03-14T11:15:26.002Z,5.3
2018-03-14T11:16:28.432Z,5.2
2018-03-14T11:17:30.875Z,5.1
2018-03-14T11:18:33.309Z,5.2
2018-03-14T11:19:35.737Z,5.1
2018-03-14T11:20:38.174Z,5.1
2018-03-14T11:21:40.624Z,5.2
2018-03-14T11:22:43.329Z,5.2
2018-03-14T11:23:45.772Z,5.1
2018-03-14T11:24:48.482Z,5.1
2018-03-14T11:25:50.925Z,5.1
2018-03-14T11:26:53.650Z,5.1
2018-03-14T11:27:56.379Z,5.1
2018-03-14T11:28:58.815Z,5.2
2018-03-14T11:30:01.260Z,5.1
2018-03-14T11:31:03.691Z,5.2
2018-03-14T11:32:06.191Z,5.2
2018-03-14T11:33:08.910Z,5.2
2018-03-14T11:34:11.952Z,5.2
2018-03-14T11:35:14.343Z,5.1
2018-03-14T11:36:16.774Z,5.1
2018-03-14T11:37:19.219Z,5.2
2018-03-14T11:38:21.657Z,5.2
2018-03-14T11:39:24.086Z,5.2
2018-03-14T11:40:26.523Z,5.2
2018-03-14T11:41:28.962Z,5.1
2018-03-14T11:42:31.395Z,5.1
2018-03-14T11:43:33.827Z,5.1
2018-03-14T11:44:36.267Z,5
2018-03-14T11:45:39.063Z,5
2018-03-14T11:46:41.488Z,5.1
2018-03-14T11:47:43.922Z,5.1
2018-03-14T11:48:46.364Z,5.2
2018-03-14T11:49:48.792Z,5.1
2018-03-14T11:50:51.224Z,5.1
2018-03-14T11:51:53.663Z,5
2018-03-14T11:52:56.101Z,5
2018-03-14T11:53:58.834Z,5.1
2018-03-14T11:55:01.274Z,5.1
2018-03-14T11:56:03.692Z,5.1
2018-03-14T11:57:06.133Z,5.1
2018-03-14T11:58:08.572Z,5
2018-03-14T11:59:11.005Z,5
2018-03-14T12:00:13.440Z,5
2018-03-14T12:01:15.876Z,5
2018-03-14T12:02:18.303Z,5.1
2018-03-14T12:03:21.022Z,5
2018-03-14T12:04:24.025Z,5
2018-03-14T12:05:26.455Z,5.1
2018-03-14T12:06:28.890Z,5
2018-03-14T12:07:31.336Z,5
2018-03-14T12:08:33.775Z,5
2018-03-14T12:09:36.210Z,5
2018-03-14T12:10:38.639Z,5
2018-03-14T12:11:41.073Z,5.1
2018-03-14T12:12:43.790Z,5.1
2018-03-14T12:13:46.218Z,4.9
2018-03-14T12:14:48.647Z,5
2018-03-14T12:15:51.065Z,5.1
2018-03-14T12:16:53.503Z,4.9
2018-03-14T12:17:55.941Z,4.9
2018-03-14T12:18:58.376Z,5
2018-03-14T12:20:01.104Z,5.1
2018-03-14T12:21:03.540Z,5
2018-03-14T12:22:05.960Z,5
2018-03-14T12:23:08.403Z,5
2018-03-14T12:24:10.837Z,4.9
2018-03-14T12:25:13.266Z,4.9
2018-03-14T12:26:15.748Z,5.1
2018-03-14T12:27:18.130Z,5.1
2018-03-14T12:28:20.554Z,5
2018-03-14T12:29:23.001Z,4.9
2018-03-14T12:30:25.415Z,4.9
2018-03-14T12:31:27.865Z,4.9
2018-03-14T12:32:30.289Z,4.9
2018-03-14T12:33:32.730Z,4.9
2018-03-14T12:34:35.455Z,4.9
2018-03-14T12:35:37.900Z,5
2018-03-14T12:36:40.329Z,5
2018-03-14T12:37:43.054Z,4.9
2018-03-14T12:38:45.768Z,5
2018-03-14T12:39:48.200Z,5
2018-03-14T12:40:50.631Z,4.9
2018-03-14T12:41:53.053Z,4.9
2018-03-14T12:42:55.478Z,4.9
2018-03-14T12:43:57.915Z,5
2018-03-14T12:45:00.349Z,5
2018-03-14T12:46:03.072Z,4.9
2018-03-14T12:47:05.502Z,5
2018-03-14T12:48:07.948Z,4.9
2018-03-14T12:49:10.376Z,4.9
2018-03-14T12:50:12.811Z,4.9
2018-03-14T12:51:15.238Z,4.9
2018-03-14T12:52:18.270Z,5
2018-03-14T12:53:20.991Z,5
2018-03-14T12:54:23.425Z,4.9
2018-03-14T12:55:26.131Z,4.9
2018-03-14T12:56:28.565Z,4.9
2018-03-14T12:57:31.278Z,5
2018-03-14T12:58:33.715Z,5
2018-03-14T12:59:36.141Z,4.9
2018-03-14T13:00:38.579Z,4.9
2018-03-14T13:01:41.005Z,5
2018-03-14T13:02:43.453Z,5
2018-03-14T13:03:45.889Z,5
2018-03-14T13:04:48.313Z,4.9
2018-03-14T13:05:50.748Z,4.9
2018-03-14T13:06:53.184Z,4.9
2018-03-14T13:07:55.619Z,4.9
2018-03-14T13:08:58.329Z,4.9
2018-03-14T13:10:00.748Z,5.1
2018-03-14T13:11:03.479Z,4.9
2018-03-14T13:12:05.918Z,5
2018-03-14T13:13:08.355Z,5
2018-03-14T13:14:11.070Z,4.9
2018-03-14T13:15:13.508Z,4.9
2018-03-14T13:16:15.944Z,4.9
2018-03-14T13:17:18.663Z,4.9
2018-03-14T13:18:21.096Z,4.9
2018-03-14T13:19:23.533Z,4.9
2018-03-14T13:20:25.961Z,4.9
2018-03-14T13:21:28.387Z,4.9
2018-03-14T13:22:30.826Z,4.9
2018-03-14T13:23:33.567Z,4.8
2018-03-14T13:24:35.996Z,4.9
2018-03-14T13:25:38.502Z,4.9
2018-03-14T13:26:40.864Z,4.9
2018-03-14T13:27:43.288Z,4.9
2018-03-14T13:28:45.731Z,4.9
2018-03-14T13:29:48.151Z,4.9
2018-03-14T13:30:50.594Z,5
2018-03-14T13:31:53.354Z,4.9
2018-03-14T13:32:55.761Z,5
2018-03-14T13:33:58.178Z,4.9
2018-03-14T13:35:00.910Z,4.8
2018-03-14T13:36:03.611Z,4.9
2018-03-14T13:37:06.337Z,5
2018-03-14T13:38:09.064Z,5
2018-03-14T13:39:11.484Z,4.9
2018-03-14T13:40:13.918Z,4.9
2018-03-14T13:41:16.345Z,4.9
2018-03-14T13:42:18.772Z,5
2018-03-14T13:43:21.211Z,4.9
2018-03-14T13:44:23.955Z,4.9
2018-03-14T13:45:26.387Z,4.9
2018-03-14T13:46:29.096Z,4.9
2018-03-14T13:47:31.596Z,5
2018-03-14T13:48:34.272Z,4.9
2018-03-14T13:49:36.969Z,4.9
2018-03-14T13:50:39.410Z,4.9
2018-03-14T13:51:41.843Z,4.9
2018-03-14T13:52:44.281Z,4.8
2018-03-14T13:53:46.722Z,5
2018-03-14T13:54:49.138Z,4.9
2018-03-14T13:55:51.581Z,4.9
2018-03-14T13:56:54.017Z,5
2018-03-14T13:57:56.452Z,5
2018-03-14T13:58:58.904Z,5
2018-03-14T14:00:01.312Z,4.9
2018-03-14T14:01:03.747Z,4.9
2018-03-14T14:02:06.179Z,4.9
2018-03-14T14:03:08.900Z,5
2018-03-14T14:04:11.334Z,4.9
2018-03-14T14:05:14.335Z,4.9
2018-03-14T14:06:16.763Z,5
2018-03-14T14:07:19.198Z,4.9
2018-03-14T14:08:21.638Z,4.9
2018-03-14T14:09:24.358Z,5
2018-03-14T14:10:26.801Z,4.9
2018-03-14T14:11:29.238Z,4.9
2018-03-14T14:12:31.674Z,4.9
2018-03-14T14:13:34.100Z,5
2018-03-14T14:14:36.530Z,5.1
2018-03-14T14:15:38.958Z,5
2018-03-14T14:16:41.392Z,5
2018-03-14T14:17:43.819Z,4.9
2018-03-14T14:18:46.261Z,4.9
2018-03-14T14:19:48.696Z,4.9
2018-03-14T14:20:51.127Z,5
2018-03-14T14:21:53.567Z,5
2018-03-14T14:22:56.005Z,5
2018-03-14T14:23:58.434Z,5
2018-03-14T14:25:00.897Z,4.9